createdAt,value
2024-03-04T00:00:30.356Z,9.37
2024-03-04T00:01:30.407Z,9.36
2024-03-04T00:02:30.335Z,9.34
2024-03-04T00:03:30.201Z,9.36
2024-03-04T00:04:30.234Z,9.34
2024-03-04T00:05:31.227Z,9.34
2024-03-04T00:06:30.276Z,9.33
2024-03-04T00:07:30.365Z,9.30
2024-03-04T00:08:30.204Z,9.32
2024-03-04T00:09:30.178Z,9.30
2024-03-04T00:10:30.258Z,9.27
2024-03-04T00:11:30.165Z,9.27
2024-03-04T00:12:30.118Z,9.26
2024-03-04T00:13:30.161Z,9.26
2024-03-04T00:14:30.113Z,9.24
2024-03-04T00:15:30.105Z,9.22
2024-03-04T00:16:30.224Z,9.19
2024-03-04T00:17:30.094Z,9.19
2024-03-04T00:18:30.060Z,9.16
2024-03-04T00:19:30.149Z,9.16
2024-03-04T00:20:30.026Z,9.14
2024-03-04T00:21:30.010Z,9.12
2024-03-04T00:22:30.056Z,9.11
2024-03-04T00:23:30.051Z,9.11
2024-03-04T00:24:30.020Z,9.08
2024-03-04T00:25:30.124Z,9.08
2024-03-04T00:26:29.953Z,9.04
2024-03-04T00:27:29.926Z,9.03
2024-03-04T00:28:30.125Z,9.01
2024-03-04T00:29:29.937Z,9.01
2024-03-04T00:30:29.971Z,8.98
2024-03-04T00:31:29.946Z,8.98
2024-03-04T00:32:29.937Z,8.99
2024-03-04T00:33:29.862Z,9.01
2024-03-04T00:34:29.919Z,8.99
2024-03-04T00:35:29.876Z,8.99
2024-03-04T00:36:29.858Z,9.03
2024-03-04T00:37:29.868Z,9.03
2024-03-04T00:38:29.823Z,8.99
2024-03-04T00:39:29.820Z,9.01
2024-03-04T00:40:29.835Z,9.01
2024-03-04T00:41:29.799Z,9.01
2024-03-04T00:42:29.791Z,9.03
2024-03-04T00:43:29.798Z,9.03
2024-03-04T00:44:29.757Z,9.04
2024-03-04T00:45:29.776Z,9.08
2024-03-04T00:46:29.792Z,9.04
2024-03-04T00:47:29.777Z,9.06
2024-03-04T00:48:29.716Z,9.03
2024-03-04T00:49:29.747Z,9.06
2024-03-04T00:50:29.685Z,9.08
2024-03-04T00:51:29.757Z,9.06
2024-03-04T00:52:29.782Z,9.06
2024-03-04T00:53:29.681Z,9.06
2024-03-04T00:54:29.656Z,9.06
2024-03-04T00:55:29.795Z,9.06
2024-03-04T00:56:29.629Z,9.06
2024-03-04T00:57:29.622Z,9.06
2024-03-04T00:58:29.731Z,9.04
2024-03-04T00:59:29.623Z,9.06
2024-03-04T01:00:29.603Z,9.04
2024-03-04T01:01:29.592Z,9.04
2024-03-04T01:02:29.609Z,9.04
2024-03-04T01:03:29.567Z,8.99
2024-03-04T01:04:29.570Z,9.01
2024-03-04T01:05:29.541Z,8.99
2024-03-04T01:06:29.530Z,8.98
2024-03-04T01:07:29.538Z,8.98
2024-03-04T01:08:29.513Z,8.96
2024-03-04T01:09:29.483Z,8.95
2024-03-04T01:10:29.493Z,8.92
2024-03-04T01:11:29.535Z,8.95
2024-03-04T01:12:29.477Z,8.93
2024-03-04T01:13:29.509Z,8.89
2024-03-04T01:14:29.426Z,8.90
2024-03-04T01:15:29.410Z,8.89
2024-03-04T01:16:29.476Z,8.89
2024-03-04T01:17:29.477Z,8.89
2024-03-04T01:18:29.424Z,8.88
2024-03-04T01:19:29.474Z,8.88
2024-03-04T01:20:29.398Z,8.85
2024-03-04T01:21:29.365Z,8.86
2024-03-04T01:22:29.439Z,8.80
2024-03-04T01:23:29.337Z,8.81
2024-03-04T01:24:29.419Z,8.80
2024-03-04T01:25:29.402Z,8.80
2024-03-04T01:26:29.313Z,8.80
2024-03-04T01:27:29.300Z,8.80
2024-03-04T01:28:29.301Z,8.78
2024-03-04T01:29:29.291Z,8.77
2024-03-04T01:30:29.283Z,8.72
2024-03-04T01:31:29.314Z,8.74
2024-03-04T01:32:29.282Z,8.72
2024-03-04T01:33:29.298Z,8.72
2024-03-04T01:34:29.241Z,8.71
2024-03-04T01:35:29.208Z,8.71
2024-03-04T01:36:29.212Z,8.72
2024-03-04T01:37:29.267Z,8.72
2024-03-04T01:38:29.168Z,8.71
2024-03-04T01:39:29.150Z,8.74
2024-03-04T01:40:29.233Z,8.71
2024-03-04T01:41:29.284Z,8.70
2024-03-04T01:42:29.160Z,8.70
2024-03-04T01:43:29.163Z,8.67
2024-03-04T01:44:29.149Z,8.67
2024-03-04T01:45:29.097Z,8.63
2024-03-04T01:46:29.114Z,8.63
2024-03-04T01:47:29.177Z,8.62
2024-03-04T01:48:29.085Z,8.60
2024-03-04T01:49:29.089Z,8.59
2024-03-04T01:50:29.089Z,8.59
2024-03-04T01:51:29.057Z,8.56
2024-03-04T01:52:29.117Z,8.55
2024-03-04T01:53:29.065Z,8.52
2024-03-04T01:54:29.107Z,8.53
2024-03-04T01:55:29.057Z,8.53
2024-03-04T01:56:28.981Z,8.53
2024-03-04T01:57:28.976Z,8.53
2024-03-04T01:58:29.082Z,8.53
2024-03-04T01:59:28.992Z,8.55
2024-03-04T02:00:28.981Z,8.57
2024-03-04T02:01:29.000Z,8.56
2024-03-04T02:02:28.929Z,8.56
2024-03-04T02:03:28.907Z,8.53
2024-03-04T02:04:28.934Z,8.55
2024-03-04T02:05:28.890Z,8.53
2024-03-04T02:06:28.913Z,8.52
2024-03-04T02:07:28.928Z,8.52
2024-03-04T02:08:28.963Z,8.50
2024-03-04T02:09:28.866Z,8.52
2024-03-04T02:10:28.892Z,8.53
2024-03-04T02:11:28.925Z,8.47
2024-03-04T02:12:28.855Z,8.50
2024-03-04T02:13:29.152Z,8.52
2024-03-04T02:14:28.792Z,8.50
2024-03-04T02:15:28.796Z,8.56
2024-03-04T02:16:28.810Z,8.52
2024-03-04T02:17:28.825Z,8.52
2024-03-04T02:18:28.768Z,8.52
2024-03-04T02:19:28.790Z,8.52
2024-03-04T02:20:28.724Z,8.55
2024-03-04T02:21:28.755Z,8.52
2024-03-04T02:22:28.791Z,8.53
2024-03-04T02:23:28.741Z,8.50
2024-03-04T02:24:28.723Z,8.52
2024-03-04T02:25:28.729Z,8.50
2024-03-04T02:26:28.673Z,8.47
2024-03-04T02:27:28.701Z,8.44
2024-03-04T02:28:28.996Z,8.41
2024-03-04T02:29:28.655Z,8.35
2024-03-04T02:30:28.664Z,8.31
2024-03-04T02:31:28.697Z,8.29
2024-03-04T02:32:28.630Z,8.28
2024-03-04T02:33:28.581Z,8.26
2024-03-04T02:34:28.641Z,8.21
2024-03-04T02:35:28.606Z,8.21
2024-03-04T02:36:28.616Z,8.17
2024-03-04T02:37:28.608Z,8.13
2024-03-04T02:38:28.610Z,8.13
2024-03-04T02:39:28.530Z,8.13
2024-03-04T02:40:28.608Z,8.12
2024-03-04T02:41:28.545Z,8.13
2024-03-04T02:42:28.540Z,8.12
2024-03-04T02:43:28.620Z,8.12
2024-03-04T02:44:28.471Z,8.12
2024-03-04T02:45:28.484Z,8.12
2024-03-04T02:46:28.538Z,8.12
2024-03-04T02:47:28.505Z,8.12
2024-03-04T02:48:28.472Z,8.10
2024-03-04T02:49:28.479Z,8.12
2024-03-04T02:50:28.459Z,8.13
2024-03-04T02:51:28.424Z,8.12
2024-03-04T02:52:28.526Z,8.12
2024-03-04T02:53:28.403Z,8.09
2024-03-04T02:54:28.433Z,8.09
2024-03-04T02:55:28.468Z,8.04
2024-03-04T02:56:28.351Z,8.04
2024-03-04T02:57:28.357Z,7.99
2024-03-04T02:58:28.387Z,7.99
2024-03-04T02:59:28.362Z,7.98
2024-03-04T03:00:28.336Z,7.99
2024-03-04T03:01:28.381Z,7.96
2024-03-04T03:02:28.319Z,7.95
2024-03-04T03:03:28.295Z,7.95
2024-03-04T03:04:28.304Z,7.94
2024-03-04T03:05:28.268Z,7.91
2024-03-04T03:06:28.318Z,7.88
2024-03-04T03:07:28.315Z,7.88
2024-03-04T03:08:28.240Z,7.86
2024-03-04T03:09:28.227Z,7.86
2024-03-04T03:10:28.249Z,7.84
2024-03-04T03:11:28.301Z,7.83
2024-03-04T03:12:28.227Z,7.81
2024-03-04T03:13:28.297Z,7.78
2024-03-04T03:14:28.212Z,7.80
2024-03-04T03:15:28.160Z,7.80
2024-03-04T03:16:28.156Z,7.74
2024-03-04T03:17:28.181Z,7.73
2024-03-04T03:18:28.175Z,7.71
2024-03-04T03:19:28.199Z,7.64
2024-03-04T03:20:28.140Z,7.61
2024-03-04T03:21:28.085Z,7.62
2024-03-04T03:22:28.130Z,7.61
2024-03-04T03:23:28.099Z,7.62
2024-03-04T03:24:28.113Z,7.61
2024-03-04T03:25:28.140Z,7.61
2024-03-04T03:26:28.059Z,7.60
2024-03-04T03:27:28.071Z,7.58
2024-03-04T03:28:28.078Z,7.60
2024-03-04T03:29:28.060Z,7.60
2024-03-04T03:30:28.017Z,7.62
2024-03-04T03:31:28.045Z,7.62
2024-03-04T03:32:28.033Z,7.62
2024-03-04T03:33:27.979Z,7.62
2024-03-04T03:34:28.010Z,7.64
2024-03-04T03:35:27.962Z,7.62
2024-03-04T03:36:27.987Z,7.62
2024-03-04T03:37:28.021Z,7.58
2024-03-04T03:38:27.926Z,7.60
2024-03-04T03:39:28.009Z,7.58
2024-03-04T03:40:27.952Z,7.57
2024-03-04T03:41:27.907Z,7.55
2024-03-04T03:42:27.894Z,7.57
2024-03-04T03:43:27.906Z,7.58
2024-03-04T03:44:28.004Z,7.58
2024-03-04T03:45:27.842Z,7.57
2024-03-04T03:46:27.890Z,7.58
2024-03-04T03:47:27.848Z,7.58
2024-03-04T03:48:27.813Z,7.57
2024-03-04T03:49:27.854Z,7.61
2024-03-04T03:50:27.814Z,7.62
2024-03-04T03:51:27.791Z,7.68
2024-03-04T03:52:27.787Z,7.69
2024-03-04T03:53:27.804Z,7.69
2024-03-04T03:54:27.782Z,7.73
2024-03-04T03:55:27.867Z,7.73
2024-03-04T03:56:27.759Z,7.73
2024-03-04T03:57:31.745Z,7.74
2024-03-04T03:58:27.710Z,7.74
2024-03-04T03:59:27.711Z,7.74
2024-03-04T04:00:30.046Z,7.71
2024-03-04T04:01:27.774Z,7.73
2024-03-04T04:02:27.713Z,7.71
2024-03-04T04:03:27.657Z,7.73
2024-03-04T04:04:27.682Z,7.73
2024-03-04T04:05:27.655Z,7.74
2024-03-04T04:06:27.635Z,7.77
2024-03-04T04:07:27.652Z,7.77
2024-03-04T04:08:27.610Z,7.77
2024-03-04T04:09:27.614Z,7.76
2024-03-04T04:10:27.643Z,7.76
2024-03-04T04:11:27.607Z,7.77
2024-03-04T04:12:27.593Z,7.77
2024-03-04T04:13:27.563Z,7.77
2024-03-04T04:14:27.567Z,7.76
2024-03-04T04:15:29.557Z,7.76
2024-03-04T04:16:27.546Z,7.76
2024-03-04T04:17:27.610Z,7.76
2024-03-04T04:18:27.525Z,7.74
2024-03-04T04:19:27.512Z,7.73
2024-03-04T04:20:27.495Z,7.74
2024-03-04T04:21:27.532Z,7.73
2024-03-04T04:22:27.515Z,7.74
2024-03-04T04:23:27.473Z,7.74
2024-03-04T04:24:27.441Z,7.76
2024-03-04T04:25:27.504Z,7.73
2024-03-04T04:26:27.442Z,7.76
2024-03-04T04:27:27.432Z,7.73
2024-03-04T04:28:27.464Z,7.77
2024-03-04T04:29:27.391Z,7.76
2024-03-04T04:30:27.392Z,7.74
2024-03-04T04:31:27.405Z,7.74
2024-03-04T04:32:27.455Z,7.76
2024-03-04T04:33:27.436Z,7.74
2024-03-04T04:34:27.341Z,7.78
2024-03-04T04:35:27.312Z,7.78
2024-03-04T04:36:27.327Z,7.76
2024-03-04T04:37:27.376Z,7.77
2024-03-04T04:38:27.290Z,7.74
2024-03-04T04:39:27.257Z,7.73
2024-03-04T04:40:27.294Z,7.73
2024-03-04T04:41:27.259Z,7.74
2024-03-04T04:42:27.265Z,7.74
2024-03-04T04:43:27.395Z,7.74
2024-03-04T04:44:27.228Z,7.73
2024-03-04T04:45:27.246Z,7.76
2024-03-04T04:46:27.262Z,7.73
2024-03-04T04:47:27.229Z,7.76
2024-03-04T04:48:27.201Z,7.76
2024-03-04T04:49:27.234Z,7.77
2024-03-04T04:50:27.213Z,7.76
2024-03-04T04:51:27.182Z,7.78
2024-03-04T04:52:27.152Z,7.78
2024-03-04T04:53:27.151Z,7.77
2024-03-04T04:54:27.149Z,7.76
2024-03-04T04:55:27.233Z,7.76
2024-03-04T04:56:27.120Z,7.78
2024-03-04T04:57:27.076Z,7.80
2024-03-04T04:58:27.130Z,7.81
2024-03-04T04:59:27.097Z,7.80
2024-03-04T05:00:27.088Z,7.80
2024-03-04T05:01:27.199Z,7.81
2024-03-04T05:02:27.077Z,7.81
2024-03-04T05:03:40.045Z,7.83
2024-03-04T05:04:41.414Z,7.86
2024-03-04T05:05:27.233Z,7.83
2024-03-04T05:06:27.038Z,7.84
2024-03-04T05:07:27.255Z,7.84
2024-03-04T05:08:26.986Z,7.84
2024-03-04T05:09:26.955Z,7.84
2024-03-04T05:10:26.971Z,7.84
2024-03-04T05:11:26.989Z,7.84
2024-03-04T05:12:26.945Z,7.84
2024-03-04T05:13:26.968Z,7.84
2024-03-04T05:14:27.840Z,7.84
2024-03-04T05:15:26.932Z,7.84
2024-03-04T05:16:26.944Z,7.84
2024-03-04T05:17:26.973Z,7.84
2024-03-04T05:18:26.891Z,7.84
2024-03-04T05:19:26.947Z,7.86
2024-03-04T05:20:26.852Z,7.86
2024-03-04T05:21:26.835Z,7.83
2024-03-04T05:22:26.855Z,7.83
2024-03-04T05:23:26.815Z,7.81
2024-03-04T05:24:26.818Z,7.81
2024-03-04T05:25:26.830Z,7.81
2024-03-04T05:26:26.803Z,7.80
2024-03-04T05:27:29.729Z,7.77
2024-03-04T05:28:26.788Z,7.77
2024-03-04T05:29:26.777Z,7.78
2024-03-04T05:30:26.782Z,7.77
2024-03-04T05:31:26.740Z,7.78
2024-03-04T05:32:26.747Z,7.77
2024-03-04T05:33:26.723Z,7.73
2024-03-04T05:34:26.891Z,7.68
2024-03-04T05:35:26.618Z,7.62
2024-03-04T05:36:26.658Z,7.55
2024-03-04T05:37:26.640Z,7.54
2024-03-04T05:38:26.622Z,7.49
2024-03-04T05:39:26.663Z,7.47
2024-03-04T05:40:26.674Z,7.46
2024-03-04T05:41:26.650Z,7.40
2024-03-04T05:42:26.717Z,7.39
2024-03-04T05:43:26.661Z,7.37
2024-03-04T05:44:26.733Z,7.36
2024-03-04T05:45:26.616Z,7.34
2024-03-04T05:46:26.687Z,7.34
2024-03-04T05:47:26.665Z,7.33
2024-03-04T05:48:26.683Z,7.31
2024-03-04T05:49:26.681Z,7.28
2024-03-04T05:50:26.590Z,7.28
2024-03-04T05:51:26.457Z,7.26
2024-03-04T05:52:26.631Z,7.24
2024-03-04T05:53:26.462Z,7.22
2024-03-04T05:54:26.482Z,7.22
2024-03-04T05:55:26.490Z,7.19
2024-03-04T05:56:26.528Z,7.19
2024-03-04T05:57:26.445Z,7.19
2024-03-04T05:58:26.495Z,7.16
2024-03-04T05:59:26.553Z,7.18
2024-03-04T06:00:26.536Z,7.21
2024-03-04T06:01:26.443Z,7.18
2024-03-04T06:02:26.370Z,7.19
2024-03-04T06:03:26.459Z,7.16
2024-03-04T06:04:26.476Z,7.13
2024-03-04T06:05:26.357Z,7.11
2024-03-04T06:06:26.380Z,7.11
2024-03-04T06:07:26.418Z,7.11
2024-03-04T06:08:26.397Z,7.08
2024-03-04T06:09:26.292Z,7.10
2024-03-04T06:10:26.299Z,7.10
2024-03-04T06:11:26.285Z,7.08
2024-03-04T06:12:26.293Z,7.08
2024-03-04T06:13:26.522Z,7.04
2024-03-04T06:14:26.224Z,7.03
2024-03-04T06:15:26.308Z,7.01
2024-03-04T06:16:26.291Z,7.01
2024-03-04T06:17:26.225Z,7.00
2024-03-04T06:18:26.161Z,7.00
2024-03-04T06:19:26.206Z,6.97
2024-03-04T06:20:26.267Z,6.97
2024-03-04T06:21:26.471Z,6.97
2024-03-04T06:22:28.637Z,6.97
2024-03-04T06:23:26.343Z,6.97
2024-03-04T06:24:26.096Z,6.96
2024-03-04T06:25:26.116Z,6.96
2024-03-04T06:26:26.105Z,6.97
2024-03-04T06:27:26.140Z,6.97
2024-03-04T06:28:26.133Z,6.97
2024-03-04T06:29:26.066Z,6.97
2024-03-04T06:30:26.070Z,6.99
2024-03-04T06:31:26.074Z,6.97
2024-03-04T06:32:26.085Z,6.97
2024-03-04T06:33:32.723Z,6.99
2024-03-04T06:34:26.095Z,6.99
2024-03-04T06:35:26.046Z,7.03
2024-03-04T06:36:26.008Z,7.01
2024-03-04T06:37:26.046Z,7.03
2024-03-04T06:38:27.803Z,7.06
2024-03-04T06:39:25.989Z,7.10
2024-03-04T06:40:26.018Z,7.11
2024-03-04T06:41:25.994Z,7.10
2024-03-04T06:42:25.931Z,7.11
2024-03-04T06:43:25.946Z,7.10
2024-03-04T06:44:25.908Z,7.10
2024-03-04T06:45:28.425Z,7.11
2024-03-04T06:46:25.935Z,7.11
2024-03-04T06:47:25.879Z,7.13
2024-03-04T06:48:25.837Z,7.19
2024-03-04T06:49:25.900Z,7.19
2024-03-04T06:50:25.864Z,7.21
2024-03-04T06:51:25.822Z,7.22
2024-03-04T06:52:25.856Z,7.24
2024-03-04T06:53:25.835Z,7.24
2024-03-04T06:54:25.817Z,7.22
2024-03-04T06:55:25.832Z,7.19
2024-03-04T06:56:25.794Z,7.18
2024-03-04T06:57:25.789Z,7.18
2024-03-04T06:58:25.821Z,7.16
2024-03-04T06:59:25.832Z,7.15
2024-03-04T07:00:25.736Z,7.16
2024-03-04T07:01:25.815Z,7.15
2024-03-04T07:02:25.794Z,7.13
2024-03-04T07:03:25.765Z,7.11
2024-03-04T07:04:25.769Z,7.15
2024-03-04T07:05:25.713Z,7.13
2024-03-04T07:06:25.692Z,7.15
2024-03-04T07:07:25.716Z,7.16
2024-03-04T07:08:25.649Z,7.18
2024-03-04T07:09:25.725Z,7.18
2024-03-04T07:10:25.715Z,7.21
2024-03-04T07:11:25.797Z,7.22
2024-03-04T07:12:25.636Z,7.24
2024-03-04T07:13:25.658Z,7.24
2024-03-04T07:14:25.598Z,7.26
2024-03-04T07:15:25.606Z,7.28
2024-03-04T07:16:25.628Z,7.34
2024-03-04T07:17:25.630Z,7.36
2024-03-04T07:18:25.566Z,7.39
2024-03-04T07:19:25.569Z,7.39
2024-03-04T07:20:25.552Z,7.37
2024-03-04T07:21:25.523Z,7.40
2024-03-04T07:22:25.600Z,7.39
2024-03-04T07:23:25.492Z,7.42
2024-03-04T07:24:25.470Z,7.42
2024-03-04T07:25:25.557Z,7.44
2024-03-04T07:26:25.475Z,7.43
2024-03-04T07:27:25.469Z,7.43
2024-03-04T07:28:25.553Z,7.43
2024-03-04T07:29:35.791Z,7.43
2024-03-04T07:30:25.471Z,7.40
2024-03-04T07:31:25.463Z,7.40
2024-03-04T07:32:25.402Z,7.39
2024-03-04T07:33:25.426Z,7.42
2024-03-04T07:34:25.528Z,7.42
2024-03-04T07:35:25.382Z,7.43
2024-03-04T07:36:25.368Z,7.44
2024-03-04T07:37:25.396Z,7.46
2024-03-04T07:38:25.338Z,7.47
2024-03-04T07:39:25.445Z,7.47
2024-03-04T07:40:25.352Z,7.49
2024-03-04T07:41:25.328Z,7.50
2024-03-04T07:42:25.391Z,7.47
2024-03-04T07:43:25.714Z,7.49
2024-03-04T07:44:25.259Z,7.47
2024-03-04T07:45:25.279Z,7.47
2024-03-04T07:46:25.301Z,7.50
2024-03-04T07:47:25.326Z,7.50
2024-03-04T07:48:25.232Z,7.50
2024-03-04T07:49:25.248Z,7.50
2024-03-04T07:50:25.214Z,7.52
2024-03-04T07:51:25.231Z,7.54
2024-03-04T07:52:25.196Z,7.55
2024-03-04T07:53:25.179Z,7.58
2024-03-04T07:54:25.193Z,7.60
2024-03-04T07:55:25.200Z,7.61
2024-03-04T07:56:25.139Z,7.62
2024-03-04T07:57:25.834Z,7.68
2024-03-04T07:58:25.172Z,7.69
2024-03-04T07:59:25.120Z,7.73
2024-03-04T08:00:25.098Z,7.71
2024-03-04T08:01:25.189Z,7.73
2024-03-04T08:02:25.076Z,7.73
2024-03-04T08:03:25.087Z,7.77
2024-03-04T08:04:25.161Z,7.76
2024-03-04T08:05:25.052Z,7.78
2024-03-04T08:06:25.025Z,7.81
2024-03-04T08:07:25.072Z,7.83
2024-03-04T08:08:25.013Z,7.83
2024-03-04T08:09:24.990Z,7.81
2024-03-04T08:10:25.037Z,7.84
2024-03-04T08:11:25.004Z,7.86
2024-03-04T08:12:24.963Z,7.87
2024-03-04T08:13:25.016Z,7.91
2024-03-04T08:14:24.951Z,7.92
2024-03-04T08:15:24.976Z,7.92
2024-03-04T08:16:24.922Z,7.96
2024-03-04T08:17:26.520Z,7.96
2024-03-04T08:18:25.054Z,7.96
2024-03-04T08:19:24.914Z,8.02
2024-03-04T08:20:33.233Z,8.04
2024-03-04T08:21:24.858Z,8.04
2024-03-04T08:22:24.877Z,8.05
2024-03-04T08:23:24.849Z,8.09
2024-03-04T08:24:24.812Z,8.10
2024-03-04T08:25:24.839Z,8.12
2024-03-04T08:26:24.819Z,8.10
2024-03-04T08:27:24.810Z,8.13
2024-03-04T08:28:32.370Z,8.16
2024-03-04T08:29:24.826Z,8.14
2024-03-04T08:30:24.761Z,8.17
2024-03-04T08:31:24.756Z,8.19
2024-03-04T08:32:24.804Z,8.20
2024-03-04T08:33:24.780Z,8.23
2024-03-04T08:34:24.776Z,8.24
2024-03-04T08:35:24.706Z,8.24
2024-03-04T08:36:24.684Z,8.28
2024-03-04T08:37:24.771Z,8.28
2024-03-04T08:38:24.671Z,8.29
2024-03-04T08:39:24.701Z,8.29
2024-03-04T08:40:24.668Z,8.31
2024-03-04T08:41:24.642Z,8.34
2024-03-04T08:42:24.624Z,8.35
2024-03-04T08:43:24.684Z,8.35
2024-03-04T08:44:24.629Z,8.38
2024-03-04T08:45:24.670Z,8.42
2024-03-04T08:46:24.637Z,8.42
2024-03-04T08:47:24.720Z,8.42
2024-03-04T08:48:24.557Z,8.46
2024-03-04T08:49:24.583Z,8.46
2024-03-04T08:50:24.568Z,8.47
2024-03-04T08:51:24.540Z,8.50
2024-03-04T08:52:24.581Z,8.52
2024-03-04T08:53:24.620Z,8.55
2024-03-04T08:54:24.504Z,8.55
2024-03-04T08:55:24.522Z,8.56
2024-03-04T08:56:24.473Z,8.60
2024-03-04T08:57:24.516Z,8.59
2024-03-04T08:58:24.541Z,8.60
2024-03-04T08:59:24.454Z,8.62
2024-03-04T09:00:24.435Z,8.63
2024-03-04T09:01:24.484Z,8.65
2024-03-04T09:02:24.442Z,8.67
2024-03-04T09:03:24.398Z,8.65
2024-03-04T09:04:24.404Z,8.65
2024-03-04T09:05:24.364Z,8.70
2024-03-04T09:06:24.361Z,8.68
2024-03-04T09:07:24.401Z,8.72
2024-03-04T09:08:24.374Z,8.74
2024-03-04T09:09:24.363Z,8.75
2024-03-04T09:10:24.394Z,8.78
2024-03-04T09:11:24.357Z,8.80
2024-03-04T09:12:24.306Z,8.83
2024-03-04T09:13:24.343Z,8.83
2024-03-04T09:14:24.312Z,8.83
2024-03-04T09:15:24.309Z,8.83
2024-03-04T09:16:24.336Z,8.85
2024-03-04T09:17:24.322Z,8.83
2024-03-04T09:18:24.260Z,8.85
2024-03-04T09:19:24.291Z,8.88
2024-03-04T09:20:24.253Z,8.89
2024-03-04T09:21:24.221Z,8.90
2024-03-04T09:22:24.269Z,8.90
2024-03-04T09:23:24.216Z,8.93
2024-03-04T09:24:24.215Z,8.95
2024-03-04T09:25:24.210Z,8.92
2024-03-04T09:26:24.193Z,8.96
2024-03-04T09:27:24.163Z,8.95
2024-03-04T09:28:24.189Z,8.96
2024-03-04T09:29:24.124Z,8.99
2024-03-04T09:30:24.114Z,9.01
2024-03-04T09:31:24.142Z,9.03
2024-03-04T09:32:24.153Z,9.04
2024-03-04T09:33:24.100Z,9.08
2024-03-04T09:34:24.190Z,9.09
2024-03-04T09:35:24.071Z,9.09
2024-03-04T09:36:24.048Z,9.11
2024-03-04T09:37:24.064Z,9.14
2024-03-04T09:38:24.051Z,9.16
2024-03-04T09:39:24.038Z,9.16
2024-03-04T09:40:24.054Z,9.19
2024-03-04T09:41:24.000Z,9.22
2024-03-04T09:42:24.001Z,9.24
2024-03-04T09:43:24.014Z,9.23
2024-03-04T09:44:23.991Z,9.23
2024-03-04T09:45:24.046Z,9.24
2024-03-04T09:46:23.965Z,9.23
2024-03-04T09:47:23.982Z,9.26
2024-03-04T09:48:23.991Z,9.27
2024-03-04T09:49:23.998Z,9.26
2024-03-04T09:50:23.901Z,9.29
2024-03-04T09:51:23.916Z,9.30
2024-03-04T09:52:23.938Z,9.32
2024-03-04T09:53:23.882Z,9.34
2024-03-04T09:54:23.862Z,9.34
2024-03-04T09:55:23.873Z,9.36
2024-03-04T09:56:23.835Z,9.37
2024-03-04T09:57:23.849Z,9.40
2024-03-04T09:58:23.863Z,9.40
2024-03-04T09:59:23.825Z,9.41
2024-03-04T10:00:23.788Z,9.45
2024-03-04T10:01:23.881Z,9.47
2024-03-04T10:02:23.808Z,9.47
2024-03-04T10:03:23.794Z,9.51
2024-03-04T10:04:23.788Z,9.51
2024-03-04T10:05:23.748Z,9.51
2024-03-04T10:06:23.736Z,9.51
2024-03-04T10:07:23.733Z,9.52
2024-03-04T10:08:23.746Z,9.54
2024-03-04T10:09:23.725Z,9.52
2024-03-04T10:10:23.696Z,9.54
2024-03-04T10:11:23.697Z,9.52
2024-03-04T10:12:23.659Z,9.57
2024-03-04T10:13:23.686Z,9.57
2024-03-04T10:14:23.689Z,9.60
2024-03-04T10:15:23.712Z,9.63
2024-03-04T10:16:23.674Z,9.65
2024-03-04T10:17:23.631Z,9.69
2024-03-04T10:18:23.630Z,9.70
2024-03-04T10:19:23.706Z,9.70
2024-03-04T10:20:23.620Z,9.67
2024-03-04T10:21:23.585Z,9.66
2024-03-04T10:22:23.628Z,9.66
2024-03-04T10:23:23.580Z,9.66
2024-03-04T10:24:23.545Z,9.66
2024-03-04T10:25:23.554Z,9.70
2024-03-04T10:26:23.567Z,9.69
2024-03-04T10:27:23.510Z,9.73
2024-03-04T10:28:23.497Z,9.73
2024-03-04T10:29:23.506Z,9.75
2024-03-04T10:30:25.340Z,9.78
2024-03-04T10:31:23.486Z,9.80
2024-03-04T10:32:23.568Z,9.80
2024-03-04T10:33:23.515Z,9.81
2024-03-04T10:34:23.630Z,9.81
2024-03-04T10:35:23.413Z,9.80
2024-03-04T10:36:23.424Z,9.81
2024-03-04T10:37:23.450Z,9.83
2024-03-04T10:38:23.526Z,9.84
2024-03-04T10:39:23.386Z,9.83
2024-03-04T10:40:23.452Z,9.83
2024-03-04T10:41:23.364Z,9.81
2024-03-04T10:42:23.353Z,9.78
2024-03-04T10:43:23.392Z,9.77
2024-03-04T10:44:23.353Z,9.77
2024-03-04T10:45:23.315Z,9.77
2024-03-04T10:46:23.336Z,9.78
2024-03-04T10:47:23.273Z,9.78
2024-03-04T10:48:23.292Z,9.78
2024-03-04T10:49:23.296Z,9.78
2024-03-04T10:50:23.284Z,9.81
2024-03-04T10:51:23.264Z,9.84
2024-03-04T10:52:23.284Z,9.85
2024-03-04T10:53:23.236Z,9.87
2024-03-04T10:54:23.286Z,9.85
2024-03-04T10:55:23.246Z,9.87
2024-03-04T10:56:23.200Z,9.85
2024-03-04T10:57:23.202Z,9.87
2024-03-04T10:58:23.233Z,9.88
2024-03-04T10:59:23.166Z,9.87
2024-03-04T11:00:23.200Z,9.87
2024-03-04T11:01:23.229Z,9.90
2024-03-04T11:02:23.156Z,9.90
2024-03-04T11:03:23.115Z,9.91
2024-03-04T11:04:23.178Z,9.91
2024-03-04T11:05:23.113Z,9.93
2024-03-04T11:06:23.094Z,9.91
2024-03-04T11:07:23.344Z,9.94
2024-03-04T11:08:23.110Z,9.93
2024-03-04T11:09:23.068Z,9.93
2024-03-04T11:10:23.165Z,9.91
2024-03-04T11:11:23.077Z,9.91
2024-03-04T11:12:23.032Z,9.93
2024-03-04T11:13:23.121Z,9.91
2024-03-04T11:14:23.028Z,9.88
2024-03-04T11:15:23.067Z,9.90
2024-03-04T11:16:22.994Z,9.91
2024-03-04T11:17:23.015Z,9.91
2024-03-04T11:18:23.001Z,9.94
2024-03-04T11:19:22.972Z,9.96
2024-03-04T11:20:22.941Z,9.98
2024-03-04T11:21:22.962Z,9.99
2024-03-04T11:22:22.926Z,10.01
2024-03-04T11:23:22.905Z,10.02
2024-03-04T11:24:22.896Z,10.02
2024-03-04T11:25:22.983Z,10.03
2024-03-04T11:26:22.875Z,10.05
2024-03-04T11:27:22.880Z,10.03
2024-03-04T11:28:22.993Z,10.06
2024-03-04T11:29:22.834Z,10.08
2024-03-04T11:30:22.822Z,10.08
2024-03-04T11:31:22.891Z,10.08
2024-03-04T11:32:22.840Z,10.09
2024-03-04T11:33:22.793Z,10.09
2024-03-04T11:34:22.957Z,10.10
2024-03-04T11:35:22.766Z,10.12
2024-03-04T11:36:22.782Z,10.14
2024-03-04T11:37:22.905Z,10.12
2024-03-04T11:38:22.777Z,10.12
2024-03-04T11:39:23.023Z,10.14
2024-03-04T11:40:22.945Z,10.10
2024-03-04T11:41:22.753Z,10.14
2024-03-04T11:42:22.798Z,10.12
2024-03-04T11:43:22.710Z,10.14
2024-03-04T11:44:22.798Z,10.17
2024-03-04T11:45:23.866Z,10.20
2024-03-04T11:46:22.680Z,10.21
2024-03-04T11:47:22.665Z,10.26
2024-03-04T11:48:22.626Z,10.27
2024-03-04T11:49:22.670Z,10.30
2024-03-04T11:50:22.632Z,10.30
2024-03-04T11:51:22.611Z,10.30
2024-03-04T11:52:22.641Z,10.30
2024-03-04T11:53:22.577Z,10.30
2024-03-04T11:54:22.575Z,10.28
2024-03-04T11:55:22.613Z,10.30
2024-03-04T11:56:22.569Z,10.28
2024-03-04T11:57:22.521Z,10.27
2024-03-04T11:58:22.604Z,10.24
2024-03-04T11:59:22.517Z,10.24
2024-03-04T12:00:22.525Z,10.27
2024-03-04T12:01:23.359Z,10.27
2024-03-04T12:02:22.614Z,10.28
2024-03-04T12:03:22.507Z,10.27
2024-03-04T12:04:22.462Z,10.31
2024-03-04T12:05:22.475Z,10.35
2024-03-04T12:06:22.460Z,10.35
2024-03-04T12:07:24.513Z,10.39
2024-03-04T12:08:34.721Z,10.39
2024-03-04T12:09:43.915Z,10.41
2024-03-04T12:10:22.449Z,10.41
2024-03-04T12:11:22.480Z,10.43
2024-03-04T12:12:22.534Z,10.41
2024-03-04T12:13:22.486Z,10.43
2024-03-04T12:14:22.356Z,10.45
2024-03-04T12:15:22.375Z,10.45
2024-03-04T12:16:22.397Z,10.38
2024-03-04T12:17:22.379Z,10.38
2024-03-04T12:18:22.315Z,10.39
2024-03-04T12:19:22.362Z,10.38
2024-03-04T12:20:22.297Z,10.35
2024-03-04T12:21:22.287Z,10.36
2024-03-04T12:22:22.270Z,10.39
2024-03-04T12:23:22.247Z,10.36
2024-03-04T12:24:22.976Z,10.36
2024-03-04T12:25:22.382Z,10.38
2024-03-04T12:26:22.287Z,10.39
2024-03-04T12:27:22.205Z,10.36
2024-03-04T12:28:22.240Z,10.36
2024-03-04T12:29:22.218Z,10.35
2024-03-04T12:30:22.228Z,10.36
2024-03-04T12:31:22.298Z,10.35
2024-03-04T12:32:22.186Z,10.34
2024-03-04T12:33:22.158Z,10.31
2024-03-04T12:34:22.205Z,10.30
2024-03-04T12:35:22.232Z,10.30
2024-03-04T12:36:22.247Z,10.31
2024-03-04T12:37:22.109Z,10.34
2024-03-04T12:38:22.139Z,10.35
2024-03-04T12:39:22.079Z,10.34
2024-03-04T12:40:22.140Z,10.34
2024-03-04T12:41:22.193Z,10.34
2024-03-04T12:42:22.113Z,10.35
2024-03-04T12:43:22.099Z,10.38
2024-03-04T12:44:22.105Z,10.38
2024-03-04T12:45:22.018Z,10.35
2024-03-04T12:46:22.004Z,10.34
2024-03-04T12:47:22.181Z,10.31
2024-03-04T12:48:22.018Z,10.31
2024-03-04T12:49:22.095Z,10.34
2024-03-04T12:50:21.970Z,10.30
2024-03-04T12:51:21.950Z,10.26
2024-03-04T12:52:21.957Z,10.23
2024-03-04T12:53:22.129Z,10.24
2024-03-04T12:54:21.947Z,10.23
2024-03-04T12:55:21.955Z,10.23
2024-03-04T12:56:21.917Z,10.23
2024-03-04T12:57:21.916Z,10.26
2024-03-04T12:58:21.905Z,10.28
2024-03-04T12:59:21.859Z,10.27
2024-03-04T13:00:21.889Z,10.30
2024-03-04T13:01:21.966Z,10.30
2024-03-04T13:02:21.835Z,10.30
2024-03-04T13:03:21.902Z,10.28
2024-03-04T13:04:21.914Z,10.28
2024-03-04T13:05:21.804Z,10.27
2024-03-04T13:06:21.780Z,10.23
2024-03-04T13:07:21.837Z,10.21
2024-03-04T13:08:21.814Z,10.17
2024-03-04T13:09:21.755Z,10.18
2024-03-04T13:10:21.791Z,10.20
2024-03-04T13:11:21.750Z,10.21
2024-03-04T13:12:21.742Z,10.21
2024-03-04T13:13:21.740Z,10.20
2024-03-04T13:14:21.732Z,10.20